Time;durP1;ratioP1;P1;durP2;ratioP2;P2;SDS_P1;SDS_P2;PMS_P1;PMS_P2;Temp;Humidity;BMP_temperature;BMP_pressure;BME280_temperature;BME280_humidity;BME280_pressure;Samples;Min_cycle;Max_cycle;Signal;HPM_P1;HPM_P2
2021/05/23 00:01:21;;;;;;;0.87;0.80;;;19.90;38.50;;;;;;8302647;28;20029;-51
2021/05/23 00:05:24;;;;;;;1.20;0.80;;;19.90;38.50;;;;;;8305289;28;20053;-49
2021/05/23 00:09:25;;;;;;;1.10;0.70;;;19.90;38.50;;;;;;8302767;28;20040;-49
2021/05/23 00:13:32;;;;;;;1.05;0.77;;;19.90;38.50;;;;;;8302647;28;20053;-52
2021/05/23 00:17:32;;;;;;;0.98;0.80;;;19.90;38.60;;;;;;8301345;28;20041;-49
2021/05/23 00:21:33;;;;;;;1.23;1.10;;;19.90;38.60;;;;;;8304059;28;20521;-52
2021/05/23 00:25:34;;;;;;;1.27;1.00;;;19.90;38.60;;;;;;8304009;28;20056;-51
2021/05/23 00:29:34;;;;;;;0.90;0.80;;;19.80;38.50;;;;;;8302167;28;20041;-48
2021/05/23 00:33:35;;;;;;;0.90;0.70;;;19.90;38.60;;;;;;8302158;28;20081;-48
2021/05/23 00:37:36;;;;;;;1.93;0.77;;;19.90;38.60;;;;;;8299940;28;20064;-48
2021/05/23 00:41:36;;;;;;;1.07;0.70;;;19.80;38.60;;;;;;8282706;28;20745;-48
2021/05/23 00:45:38;;;;;;;1.17;0.80;;;19.80;38.60;;;;;;8301942;28;20042;-49
2021/05/23 00:49:38;;;;;;;1.13;0.93;;;19.80;38.60;;;;;;8271306;28;20089;-48
2021/05/23 00:53:39;;;;;;;1.77;0.80;;;19.80;38.60;;;;;;8297102;28;20046;-49
2021/05/23 00:57:39;;;;;;;1.20;0.80;;;19.80;38.60;;;;;;8283717;28;20069;-48
2021/05/23 01:01:43;;;;;;;0.60;0.60;;;19.80;38.70;;;;;;8262603;28;20116;-49
2021/05/23 01:05:43;;;;;;;1.67;0.88;;;19.80;38.70;;;;;;8273916;28;20096;-48
2021/05/23 01:09:44;;;;;;;1.23;0.80;;;19.80;38.70;;;;;;8296145;28;20030;-49
2021/05/23 01:14:04;;;;;;;1.00;0.80;;;19.80;38.70;;;;;;8294343;28;20045;-48
2021/05/23 01:18:12;;;;;;;1.77;0.65;;;19.80;38.70;;;;;;8287744;28;20045;-48
2021/05/23 01:22:47;;;;;;;0.70;0.70;;;19.70;38.70;;;;;;8263321;28;20077;-48
2021/05/23 01:26:53;;;;;;;1.02;0.80;;;19.80;38.70;;;;;;8262201;28;20033;-48
2021/05/23 01:30:53;;;;;;;0.93;0.70;;;19.70;38.70;;;;;;8282251;28;20034;-49
2021/05/23 01:34:54;;;;;;;0.60;0.60;;;19.70;38.70;;;;;;8266547;28;20543;-49
2021/05/23 01:38:56;;;;;;;0.73;0.50;;;19.70;38.80;;;;;;8267596;28;20034;-49
2021/05/23 01:42:57;;;;;;;1.38;0.80;;;19.70;38.80;;;;;;8262826;28;20368;-48
2021/05/23 01:46:58;;;;;;;0.70;0.50;;;19.70;38.80;;;;;;8289007;28;20149;-48
2021/05/23 01:50:58;;;;;;;0.70;0.60;;;19.70;38.80;;;;;;8294933;28;20030;-48
2021/05/23 01:54:59;;;;;;;0.50;0.50;;;19.70;38.80;;;;;;8299246;28;20084;-48
2021/05/23 01:59:00;;;;;;;0.70;0.60;;;19.70;38.80;;;;;;8292945;28;20034;-48
2021/05/23 02:03:04;;;;;;;0.60;0.43;;;19.70;38.80;;;;;;8282609;28;20038;-49
2021/05/23 02:07:05;;;;;;;1.00;0.73;;;19.70;38.80;;;;;;8262120;28;20066;-48
2021/05/23 02:11:08;;;;;;;2.20;0.63;;;19.60;38.80;;;;;;8264855;28;20037;-48
2021/05/23 02:15:09;;;;;;;1.00;0.70;;;19.60;39.30;;;;;;8298793;28;20072;-49
2021/05/23 02:19:10;;;;;;;1.02;0.60;;;19.60;38.80;;;;;;8294171;28;20041;-48
2021/05/23 02:23:21;;;;;;;1.13;0.67;;;19.60;38.80;;;;;;8292563;28;20041;-48
2021/05/23 02:27:21;;;;;;;2.28;0.73;;;19.60;38.80;;;;;;8293966;28;20053;-48
2021/05/23 02:31:22;;;;;;;1.03;0.60;;;19.60;38.80;;;;;;8298286;28;20034;-49
2021/05/23 02:35:25;;;;;;;0.73;0.60;;;19.60;38.90;;;;;;8292028;28;20038;-48
2021/05/23 02:39:26;;;;;;;1.15;0.70;;;19.50;38.80;;;;;;8293447;28;20038;-49
2021/05/23 02:43:26;;;;;;;0.60;0.50;;;19.60;38.80;;;;;;8270083;28;20030;-49
2021/05/23 02:47:27;;;;;;;0.60;0.60;;;19.60;38.90;;;;;;8283462;28;21239;-48
2021/05/23 02:51:27;;;;;;;0.90;0.77;;;19.60;38.90;;;;;;8265246;28;20403;-49
2021/05/23 02:55:28;;;;;;;0.70;0.50;;;19.50;38.80;;;;;;8260757;28;20089;-51
2021/05/23 02:59:29;;;;;;;0.85;0.50;;;19.60;38.90;;;;;;8283444;28;20103;-49
2021/05/23 03:03:29;;;;;;;1.40;0.53;;;19.50;38.80;;;;;;8276419;28;20076;-49
2021/05/23 03:07:33;;;;;;;0.53;0.53;;;19.50;38.80;;;;;;8297153;28;20380;-48
2021/05/23 03:11:33;;;;;;;1.17;0.52;;;19.50;38.80;;;;;;8282198;28;20101;-48
2021/05/23 03:15:34;;;;;;;1.60;0.60;;;19.50;38.90;;;;;;8260210;28;20559;-49
2021/05/23 03:19:36;;;;;;;0.73;0.60;;;19.50;38.90;;;;;;8258370;28;20390;-50
2021/05/23 03:23:36;;;;;;;0.50;0.40;;;19.50;38.90;;;;;;8261092;28;20030;-50
2021/05/23 03:27:38;;;;;;;0.77;0.57;;;19.50;38.90;;;;;;8280403;28;20107;-51
2021/05/23 03:31:38;;;;;;;1.52;0.60;;;19.50;38.90;;;;;;8290438;28;20076;-49
2021/05/23 03:35:40;;;;;;;0.40;0.40;;;19.50;38.90;;;;;;8292233;28;20045;-49
2021/05/23 03:39:40;;;;;;;;;;;19.50;38.90;;;;;;8292684;28;20065;-49
2021/05/23 03:43:41;;;;;;;1.63;0.40;;;19.50;38.90;;;;;;8295022;28;19949;-49
2021/05/23 03:47:42;;;;;;;1.17;0.50;;;19.50;38.90;;;;;;8291840;28;20438;-48
2021/05/23 03:51:45;;;;;;;1.00;0.40;;;19.50;38.80;;;;;;8274215;28;20057;-50
2021/05/23 03:55:46;;;;;;;0.57;0.50;;;19.50;38.80;;;;;;8282088;28;20133;-48
2021/05/23 03:59:46;;;;;;;0.47;0.47;;;19.50;38.80;;;;;;8273964;28;20402;-49
2021/05/23 04:03:47;;;;;;;0.70;0.50;;;19.50;38.80;;;;;;8291970;28;20454;-47
2021/05/23 04:07:49;;;;;;;0.63;0.52;;;19.50;38.80;;;;;;8290142;28;20092;-49
2021/05/23 04:11:51;;;;;;;0.40;0.40;;;19.50;38.90;;;;;;8291485;28;20053;-49
2021/05/23 04:15:52;;;;;;;1.70;0.40;;;19.50;38.90;;;;;;8291727;28;20033;-48
2021/05/23 04:19:52;;;;;;;0.80;0.40;;;19.50;38.90;;;;;;8291441;28;20053;-48
2021/05/23 04:23:53;;;;;;;0.60;0.53;;;19.50;38.80;;;;;;8261835;28;20447;-49
2021/05/23 04:27:54;;;;;;;0.80;0.40;;;19.50;38.90;;;;;;8265096;28;20030;-49
2021/05/23 04:31:55;;;;;;;0.85;0.57;;;19.50;38.90;;;;;;8263336;28;20038;-49
2021/05/23 04:35:56;;;;;;;2.00;0.80;;;19.40;38.80;;;;;;8280561;28;20049;-49
2021/05/23 04:39:57;;;;;;;0.50;0.43;;;19.40;38.80;;;;;;8297063;28;20105;-47
2021/05/23 04:43:57;;;;;;;1.07;0.50;;;19.40;38.80;;;;;;8295364;28;20034;-48
2021/05/23 04:47:58;;;;;;;0.40;0.40;;;19.40;38.90;;;;;;8297259;28;20270;-49
2021/05/23 04:51:58;;;;;;;1.60;0.57;;;19.50;38.90;;;;;;8298696;28;20061;-51
2021/05/23 04:55:59;;;;;;;0.63;0.50;;;19.50;38.90;;;;;;8293655;28;20041;-50
2021/05/23 04:59:59;;;;;;;0.50;0.50;;;19.50;38.90;;;;;;8276330;28;20034;-49
2021/05/23 05:04:01;;;;;;;0.50;0.40;;;19.40;38.90;;;;;;8276949;28;20043;-50
2021/05/23 05:08:01;;;;;;;;;;;19.40;38.80;;;;;;8262896;28;20026;-50
2021/05/23 05:12:02;;;;;;;0.57;0.30;;;19.40;38.90;;;;;;8268312;28;20005;-48
2021/05/23 05:16:03;;;;;;;0.70;0.47;;;19.40;38.90;;;;;;8284221;28;20041;-48
2021/05/23 05:20:07;;;;;;;0.90;0.60;;;19.40;38.90;;;;;;8265797;28;20184;-49
2021/05/23 05:24:09;;;;;;;0.38;0.38;;;19.40;38.90;;;;;;8263437;28;20031;-48
2021/05/23 05:28:10;;;;;;;0.43;0.35;;;19.40;38.90;;;;;;8289315;28;20046;-49
2021/05/23 05:32:10;;;;;;;0.67;0.40;;;19.40;39.00;;;;;;8294372;28;20430;-49
2021/05/23 05:36:11;;;;;;;0.50;0.40;;;19.40;39.00;;;;;;8294960;28;20034;-49
2021/05/23 05:40:12;;;;;;;2.53;1.33;;;19.40;39.00;;;;;;8273763;28;20395;-49
2021/05/23 05:44:13;;;;;;;0.85;0.50;;;19.40;39.00;;;;;;8266383;28;20487;-48
2021/05/23 05:48:14;;;;;;;0.87;0.30;;;19.40;39.00;;;;;;8299565;28;20033;-49
2021/05/23 05:52:14;;;;;;;0.80;0.60;;;19.40;39.00;;;;;;8294893;28;20531;-49
2021/05/23 05:56:15;;;;;;;1.10;0.80;;;19.40;39.00;;;;;;8293193;28;20034;-52
2021/05/23 06:00:16;;;;;;;0.73;0.40;;;19.40;39.00;;;;;;8280996;28;20030;-49
2021/05/23 06:04:17;;;;;;;0.65;0.50;;;19.40;39.00;;;;;;8266506;28;20038;-50
2021/05/23 06:08:17;;;;;;;0.70;0.50;;;19.40;39.00;;;;;;8260593;28;20399;-49
2021/05/23 06:12:18;;;;;;;0.40;0.40;;;19.40;39.00;;;;;;8262460;28;20475;-48
2021/05/23 06:16:19;;;;;;;0.60;0.57;;;19.40;39.00;;;;;;8261822;28;20065;-51
2021/05/23 06:20:19;;;;;;;1.17;0.47;;;19.40;39.00;;;;;;8270938;28;20416;-48
2021/05/23 06:24:20;;;;;;;0.60;0.50;;;19.40;39.00;;;;;;8280261;28;20034;-48
2021/05/23 06:28:20;;;;;;;3.97;0.50;;;19.40;39.00;;;;;;8284548;28;20479;-48
2021/05/23 06:32:21;;;;;;;0.50;0.30;;;19.40;38.90;;;;;;8285410;28;20403;-49
2021/05/23 06:36:22;;;;;;;1.27;0.50;;;19.40;38.90;;;;;;8261175;28;20035;-48
2021/05/23 06:40:23;;;;;;;0.82;0.40;;;19.50;38.90;;;;;;8265460;28;20030;-50
2021/05/23 06:44:23;;;;;;;0.90;0.50;;;19.50;38.90;;;;;;8259298;28;20030;-48
2021/05/23 06:48:24;;;;;;;0.30;0.30;;;19.50;38.80;;;;;;8275580;28;20037;-49
2021/05/23 06:52:26;;;;;;;0.37;0.37;;;19.50;38.80;;;;;;8293276;28;20068;-48
2021/05/23 06:56:26;;;;;;;;;;;19.50;38.80;;;;;;8296198;28;20050;-49
2021/05/23 07:00:27;;;;;;;1.30;0.57;;;19.50;38.80;;;;;;8293003;28;20353;-51
2021/05/23 07:04:27;;;;;;;1.10;0.60;;;19.50;38.80;;;;;;8269245;28;20035;-49
2021/05/23 07:08:28;;;;;;;0.43;0.40;;;19.50;38.80;;;;;;8258868;28;20030;-49
2021/05/23 07:12:28;;;;;;;0.60;0.33;;;19.50;38.80;;;;;;8261045;28;20069;-48
2021/05/23 07:16:29;;;;;;;0.73;0.50;;;19.50;38.80;;;;;;8263567;28;20477;-51
2021/05/23 07:20:29;;;;;;;0.60;0.47;;;19.50;38.80;;;;;;8258377;28;20047;-49
2021/05/23 07:24:30;;;;;;;0.63;0.37;;;19.50;38.80;;;;;;8276006;28;20384;-50
2021/05/23 07:28:32;;;;;;;0.70;0.50;;;19.50;38.80;;;;;;8292536;28;20037;-48
2021/05/23 07:32:33;;;;;;;0.75;0.70;;;19.50;38.80;;;;;;8295462;28;20479;-47
2021/05/23 07:36:33;;;;;;;0.73;0.67;;;19.50;38.80;;;;;;8292504;28;20116;-52
2021/05/23 07:40:34;;;;;;;0.73;0.60;;;19.50;38.80;;;;;;8290359;28;20048;-51
2021/05/23 07:44:35;;;;;;;1.00;0.60;;;19.50;38.80;;;;;;8292231;28;20506;-50
2021/05/23 07:48:35;;;;;;;1.37;0.67;;;19.60;38.90;;;;;;8296680;28;20034;-50
2021/05/23 07:52:36;;;;;;;0.50;0.50;;;19.50;38.90;;;;;;8290486;28;20042;-49
2021/05/23 07:56:37;;;;;;;1.60;0.63;;;19.60;38.90;;;;;;8292791;28;20041;-48
2021/05/23 08:00:37;;;;;;;0.53;0.50;;;19.50;38.80;;;;;;8298730;28;20124;-49
2021/05/23 08:04:38;;;;;;;0.90;0.57;;;19.60;38.80;;;;;;8295833;28;20042;-51
2021/05/23 08:08:38;;;;;;;0.83;0.50;;;19.50;38.80;;;;;;8270162;28;20030;-48
2021/05/23 08:12:39;;;;;;;0.77;0.60;;;19.60;38.80;;;;;;8265759;28;20057;-47
2021/05/23 08:16:39;;;;;;;0.60;0.40;;;19.50;38.80;;;;;;8289429;28;20038;-48
2021/05/23 08:20:40;;;;;;;1.47;0.83;;;19.60;38.90;;;;;;8288579;28;20042;-48
2021/05/23 08:24:40;;;;;;;1.00;0.70;;;19.60;38.90;;;;;;8269796;28;20041;-51
2021/05/23 08:28:41;;;;;;;0.47;0.37;;;19.50;38.80;;;;;;8263936;28;20038;-51
2021/05/23 08:32:42;;;;;;;3.30;0.60;;;19.60;38.80;;;;;;8274758;28;20050;-47
2021/05/23 08:36:42;;;;;;;1.00;0.63;;;19.60;38.90;;;;;;8297430;28;20064;-48
2021/05/23 08:40:43;;;;;;;1.70;0.53;;;19.50;38.80;;;;;;8300069;28;20487;-48
2021/05/23 08:44:43;;;;;;;0.67;0.50;;;19.60;38.90;;;;;;8297100;28;20042;-48
2021/05/23 08:48:45;;;;;;;1.33;0.50;;;19.60;38.90;;;;;;8297098;28;20494;-47
2021/05/23 08:52:52;;;;;;;;;;;19.60;38.90;;;;;;8295842;28;20446;-47
2021/05/23 08:56:52;;;;;;;1.58;0.60;;;19.60;38.80;;;;;;8296976;28;19917;-48
2021/05/23 09:00:54;;;;;;;0.67;0.60;;;19.70;38.90;;;;;;8301072;28;20041;-49
2021/05/23 09:04:55;;;;;;;;;;;19.70;38.80;;;;;;8295248;28;20096;-48
2021/05/23 09:09:01;;;;;;;0.60;0.40;;;19.70;38.90;;;;;;8295846;28;20289;-48
2021/05/23 09:13:02;;;;;;;0.43;0.43;;;19.70;38.90;;;;;;8296430;28;20073;-48
2021/05/23 09:17:05;;;;;;;0.77;0.68;;;19.70;38.80;;;;;;8298923;28;20073;-47
2021/05/23 09:21:06;;;;;;;0.60;0.50;;;19.80;38.80;;;;;;8296252;28;20041;-47
2021/05/23 09:25:08;;;;;;;0.50;0.43;;;19.80;38.70;;;;;;8296045;28;20057;-47
2021/05/23 09:29:17;;;;;;;0.68;0.50;;;19.80;38.70;;;;;;8265012;28;20446;-49
2021/05/23 09:33:18;;;;;;;0.82;0.43;;;19.80;38.60;;;;;;8263470;28;20047;-48
2021/05/23 09:37:19;;;;;;;0.98;0.60;;;19.80;38.60;;;;;;8290369;28;20030;-47
2021/05/23 09:41:32;;;;;;;0.47;0.37;;;19.90;38.60;;;;;;8263024;28;20037;-47
2021/05/23 09:45:38;;;;;;;0.47;0.43;;;19.90;38.60;;;;;;8279529;28;20055;-48
2021/05/23 09:49:50;;;;;;;1.05;0.65;;;19.90;38.50;;;;;;8293655;28;20119;-49
2021/05/23 09:53:59;;;;;;;0.40;0.35;;;19.90;38.50;;;;;;8294918;28;20050;-47
2021/05/23 09:57:59;;;;;;;0.52;0.50;;;19.90;38.50;;;;;;8299311;28;20072;-49
2021/05/23 10:02:11;;;;;;;0.97;0.60;;;20.00;38.50;;;;;;8293082;28;20495;-47
2021/05/23 10:06:12;;;;;;;1.52;0.47;;;20.00;38.50;;;;;;8294760;28;20138;-48
2021/05/23 10:10:13;;;;;;;0.50;0.50;;;20.00;38.40;;;;;;8294541;28;20026;-47
2021/05/23 10:14:13;;;;;;;2.22;0.60;;;20.00;38.30;;;;;;8297081;28;20041;-47
2021/05/23 10:18:15;;;;;;;0.93;0.67;;;20.10;38.20;;;;;;8294260;28;20038;-48
2021/05/23 10:22:16;;;;;;;1.40;0.63;;;20.10;38.20;;;;;;8294053;28;20050;-47
2021/05/23 10:26:21;;;;;;;0.82;0.40;;;20.10;38.10;;;;;;8292598;28;20441;-47
2021/05/23 10:30:22;;;;;;;0.47;0.40;;;20.20;38.20;;;;;;8294053;28;20054;-47
2021/05/23 10:34:35;;;;;;;1.38;0.60;;;20.20;38.10;;;;;;8298272;28;20087;-47
2021/05/23 10:38:36;;;;;;;0.57;0.47;;;20.20;38.00;;;;;;8293124;28;20026;-48
2021/05/23 10:42:48;;;;;;;0.30;0.30;;;20.20;38.00;;;;;;8293662;28;20513;-47
2021/05/23 10:46:50;;;;;;;0.50;0.50;;;20.20;38.00;;;;;;8292088;28;20034;-48
2021/05/23 10:50:51;;;;;;;0.68;0.50;;;20.20;37.90;;;;;;8295775;28;20482;-47
2021/05/23 10:55:01;;;;;;;0.60;0.40;;;20.20;37.90;;;;;;8295530;28;20085;-47
2021/05/23 10:59:04;;;;;;;1.52;0.52;;;20.30;37.90;;;;;;8291567;28;20034;-47
2021/05/23 11:03:13;;;;;;;0.85;0.45;;;20.30;37.80;;;;;;8293409;28;20398;-48
2021/05/23 11:07:14;;;;;;;1.33;0.90;;;20.30;37.80;;;;;;8293215;28;20049;-48
2021/05/23 11:11:20;;;;;;;1.63;1.00;;;20.30;37.90;;;;;;8295716;28;20414;-48
2021/05/23 11:15:22;;;;;;;2.08;1.13;;;20.30;37.80;;;;;;8292483;28;20418;-47
2021/05/23 11:19:25;;;;;;;1.50;1.05;;;20.40;37.90;;;;;;8292731;28;20506;-49
2021/05/23 11:23:27;;;;;;;2.80;1.10;;;20.30;37.90;;;;;;8290961;28;20383;-48
2021/05/23 11:27:27;;;;;;;1.45;0.93;;;20.40;37.80;;;;;;8276839;28;20034;-49
2021/05/23 11:31:31;;;;;;;2.13;1.43;;;20.40;37.80;;;;;;8263772;28;20395;-51
2021/05/23 11:35:33;;;;;;;2.70;1.23;;;20.40;37.70;;;;;;8258509;28;20062;-52
2021/05/23 11:39:34;;;;;;;2.58;1.23;;;20.40;37.80;;;;;;8276351;28;20054;-48
2021/05/23 11:43:34;;;;;;;3.27;1.63;;;20.40;37.80;;;;;;8290529;28;20149;-48
2021/05/23 11:47:45;;;;;;;3.30;1.73;;;20.40;37.70;;;;;;8296456;28;20038;-47
2021/05/23 11:51:46;;;;;;;3.20;1.20;;;20.40;37.70;;;;;;8291989;28;20044;-47
2021/05/23 11:55:52;;;;;;;1.80;1.33;;;20.40;37.70;;;;;;8290169;28;20030;-48
2021/05/23 11:59:53;;;;;;;3.58;1.98;;;20.50;37.80;;;;;;8292057;28;20030;-49
2021/05/23 12:04:11;;;;;;;2.53;1.70;;;20.50;37.70;;;;;;8291928;28;20040;-50
2021/05/23 12:08:22;;;;;;;2.95;1.42;;;20.50;37.70;;;;;;8294445;28;20077;-48
2021/05/23 12:12:23;;;;;;;;;;;20.50;37.70;;;;;;8292072;28;20049;-47
2021/05/23 12:16:24;;;;;;;4.73;2.00;;;20.50;37.60;;;;;;8291501;28;19910;-49
2021/05/23 12:20:24;;;;;;;3.67;1.87;;;20.50;37.60;;;;;;8289624;28;20030;-47
2021/05/23 12:24:29;;;;;;;2.97;1.73;;;20.60;37.70;;;;;;8296026;28;20030;-47
2021/05/23 12:28:46;;;;;;;3.70;1.77;;;20.60;37.60;;;;;;8294348;28;20269;-47
2021/05/23 12:33:07;;;;;;;3.15;1.65;;;20.50;37.60;;;;;;8289653;28;20494;-47
2021/05/23 12:37:07;;;;;;;2.90;1.77;;;20.60;37.50;;;;;;8291513;28;20038;-48
2021/05/23 12:41:12;;;;;;;2.93;1.77;;;20.60;37.50;;;;;;8289863;28;20036;-48
2021/05/23 12:45:13;;;;;;;2.67;1.60;;;20.60;37.50;;;;;;8298493;28;20383;-48
2021/05/23 12:49:20;;;;;;;3.38;2.00;;;20.60;37.40;;;;;;8297223;28;20030;-49
2021/05/23 12:53:32;;;;;;;2.90;1.65;;;20.60;37.40;;;;;;8295122;28;20073;-48
2021/05/23 12:57:33;;;;;;;3.88;1.90;;;20.60;37.40;;;;;;8296541;28;20406;-51
2021/05/23 13:01:37;;;;;;;;;;;20.60;37.40;;;;;;8295359;28;20375;-50
2021/05/23 13:05:49;;;;;;;3.35;1.80;;;20.70;37.60;;;;;;8300971;28;19913;-49
2021/05/23 13:09:50;;;;;;;3.38;1.70;;;20.60;37.40;;;;;;8296208;28;20069;-50
2021/05/23 13:13:51;;;;;;;2.70;1.53;;;20.70;37.50;;;;;;8292157;28;20038;-52
2021/05/23 13:17:53;;;;;;;3.83;1.75;;;20.70;37.50;;;;;;8263518;28;20038;-51
2021/05/23 13:21:56;;;;;;;2.97;1.70;;;20.70;37.40;;;;;;8282263;28;20383;-50
2021/05/23 13:25:56;;;;;;;2.83;1.70;;;20.80;37.50;;;;;;8298410;28;20474;-48
2021/05/23 13:29:59;;;;;;;2.73;1.90;;;20.80;37.40;;;;;;8295652;28;20034;-51
2021/05/23 13:33:59;;;;;;;2.13;1.38;;;20.80;37.30;;;;;;8295523;28;20041;-50
2021/05/23 13:38:00;;;;;;;3.70;1.93;;;20.80;37.30;;;;;;8293782;28;20030;-47
2021/05/23 13:42:01;;;;;;;4.40;1.80;;;20.80;37.30;;;;;;8299877;28;20034;-48
2021/05/23 13:46:03;;;;;;;3.47;1.85;;;20.80;37.30;;;;;;8295232;28;20474;-50
2021/05/23 13:50:04;;;;;;;;;;;20.80;37.30;;;;;;8293783;28;20041;-48
2021/05/23 13:54:06;;;;;;;;;;;20.80;37.30;;;;;;8294971;28;19965;-46
2021/05/23 13:58:07;;;;;;;3.53;1.60;;;20.80;37.20;;;;;;8295888;28;19914;-48
2021/05/23 14:02:08;;;;;;;4.60;1.60;;;20.80;37.30;;;;;;8267246;28;20128;-48
2021/05/23 14:06:08;;;;;;;3.60;1.33;;;20.80;37.30;;;;;;8275444;28;20426;-51
2021/05/23 14:10:09;;;;;;;2.93;1.70;;;20.80;37.30;;;;;;8294373;28;20502;-48
2021/05/23 14:14:10;;;;;;;3.53;1.35;;;20.90;37.30;;;;;;8268192;28;20096;-48
2021/05/23 14:18:11;;;;;;;2.57;1.57;;;20.80;37.30;;;;;;8298727;28;20030;-49
2021/05/23 14:22:12;;;;;;;2.28;1.40;;;20.80;37.20;;;;;;8272468;28;20042;-47
2021/05/23 14:26:13;;;;;;;2.37;1.60;;;20.90;37.20;;;;;;8259922;28;20070;-50
2021/05/23 14:30:15;;;;;;;2.55;1.40;;;20.90;37.20;;;;;;8261561;28;20035;-48
2021/05/23 14:34:17;;;;;;;2.38;1.50;;;20.90;37.10;;;;;;8265403;28;20054;-48
2021/05/23 14:38:18;;;;;;;3.35;1.52;;;20.90;37.20;;;;;;8289991;28;20038;-52
2021/05/23 14:42:19;;;;;;;2.83;1.40;;;20.90;37.20;;;;;;8293679;28;20042;-49
2021/05/23 14:46:20;;;;;;;2.37;1.53;;;20.90;37.30;;;;;;8293922;28;20037;-48
2021/05/23 14:50:20;;;;;;;2.97;1.80;;;20.90;37.20;;;;;;8291700;28;20030;-48
2021/05/23 14:54:21;;;;;;;2.67;1.37;;;21.00;37.20;;;;;;8297689;28;20176;-47
2021/05/23 14:58:22;;;;;;;1.90;1.17;;;21.00;37.20;;;;;;8293202;28;20124;-48
2021/05/23 15:02:22;;;;;;;2.58;1.30;;;21.00;37.20;;;;;;8291480;28;20034;-48
2021/05/23 15:06:23;;;;;;;2.63;1.50;;;21.00;37.20;;;;;;8292275;28;20026;-48
2021/05/23 15:10:23;;;;;;;2.40;1.33;;;21.00;37.20;;;;;;8297400;28;20030;-47
2021/05/23 15:14:25;;;;;;;2.20;1.30;;;21.00;37.10;;;;;;8290755;28;20129;-49
2021/05/23 15:18:26;;;;;;;2.17;1.23;;;21.00;37.10;;;;;;8292751;28;20048;-47
2021/05/23 15:22:27;;;;;;;;;;;21.00;37.00;;;;;;8292804;28;20483;-48
2021/05/23 15:31:15;;;;;;;2.88;1.50;;;21.00;37.10;;;;;;8250474;28;20376;-50
2021/05/23 15:35:15;;;;;;;2.60;1.50;;;21.00;37.00;;;;;;8286972;28;20045;-47
2021/05/23 15:39:16;;;;;;;5.37;1.60;;;21.00;37.00;;;;;;8278267;28;20309;-50
2021/05/23 15:43:16;;;;;;;2.57;1.40;;;21.10;37.10;;;;;;8259754;28;20068;-47
2021/05/23 15:47:17;;;;;;;2.30;1.50;;;21.00;37.00;;;;;;8266967;28;20036;-50
2021/05/23 15:51:18;;;;;;;2.20;1.40;;;21.10;37.10;;;;;;8294179;28;20034;-48
2021/05/23 15:55:19;;;;;;;2.85;1.40;;;21.10;37.00;;;;;;8292109;28;20069;-50
2021/05/23 15:59:19;;;;;;;2.10;1.30;;;21.10;37.00;;;;;;8284118;28;20462;-47
2021/05/23 16:03:20;;;;;;;1.87;1.10;;;21.10;37.10;;;;;;8259653;28;20518;-49
2021/05/23 16:07:20;;;;;;;2.50;1.53;;;21.10;37.00;;;;;;8286801;28;20117;-49
2021/05/23 16:11:21;;;;;;;2.20;1.30;;;21.10;37.00;;;;;;8260061;28;20042;-51
2021/05/23 16:15:22;;;;;;;2.47;1.33;;;21.10;37.00;;;;;;8259691;28;20054;-48
2021/05/23 16:19:22;;;;;;;1.93;1.17;;;21.10;37.00;;;;;;8262788;28;20027;-48
2021/05/23 16:23:23;;;;;;;2.93;1.10;;;21.10;37.50;;;;;;8275515;28;20037;-48
2021/05/23 16:27:23;;;;;;;2.57;1.57;;;21.00;37.00;;;;;;8298326;28;20125;-49
2021/05/23 16:31:24;;;;;;;1.57;1.30;;;21.10;37.00;;;;;;8297712;28;20113;-46
2021/05/23 16:35:25;;;;;;;2.57;1.43;;;21.10;37.00;;;;;;8295950;28;20037;-48
2021/05/23 16:39:25;;;;;;;3.67;1.40;;;21.10;37.00;;;;;;8297721;28;20037;-49
2021/05/23 16:43:26;;;;;;;1.73;1.27;;;21.10;37.00;;;;;;8301963;28;20045;-48
2021/05/23 16:47:26;;;;;;;1.30;1.00;;;21.10;36.90;;;;;;8295748;28;20145;-48
2021/05/23 16:51:27;;;;;;;2.57;1.20;;;21.10;37.00;;;;;;8297623;28;20033;-47
2021/05/23 16:55:32;;;;;;;1.90;1.20;;;21.00;36.90;;;;;;8296760;28;20042;-48
2021/05/23 16:59:33;;;;;;;1.98;1.23;;;21.00;36.90;;;;;;8299906;28;20033;-48
2021/05/23 17:03:33;;;;;;;1.73;1.27;;;21.10;36.90;;;;;;8275303;28;20061;-46
2021/05/23 17:07:34;;;;;;;2.20;1.50;;;21.00;36.90;;;;;;8280240;28;20030;-48
2021/05/23 17:11:34;;;;;;;1.40;1.03;;;21.00;36.80;;;;;;8296419;28;20026;-50
2021/05/23 17:15:35;;;;;;;2.00;1.33;;;21.00;36.70;;;;;;8284553;28;20038;-48
2021/05/23 17:19:36;;;;;;;1.73;1.10;;;21.00;36.80;;;;;;8287120;28;20071;-50
2021/05/23 17:23:36;;;;;;;1.67;1.10;;;21.00;36.80;;;;;;8296745;28;20038;-48
2021/05/23 17:27:38;;;;;;;2.60;1.33;;;21.00;36.80;;;;;;8279449;28;20066;-49
2021/05/23 17:31:40;;;;;;;2.20;1.40;;;21.00;36.60;;;;;;8285618;28;20034;-48
2021/05/23 17:35:41;;;;;;;1.83;1.35;;;21.00;36.70;;;;;;8267856;28;20035;-48
2021/05/23 17:39:41;;;;;;;2.03;1.33;;;21.00;36.70;;;;;;8263463;28;20438;-47
2021/05/23 17:43:41;;;;;;;2.00;1.23;;;21.00;36.70;;;;;;8263039;28;20384;-48
2021/05/23 17:47:42;;;;;;;2.60;1.30;;;21.00;36.60;;;;;;8295693;28;20121;-51
2021/05/23 17:51:43;;;;;;;2.10;1.30;;;21.00;36.70;;;;;;8299351;28;20557;-48
2021/05/23 17:55:43;;;;;;;1.87;1.17;;;21.00;36.70;;;;;;8293307;28;20038;-48
2021/05/23 17:59:44;;;;;;;2.13;1.20;;;21.00;36.70;;;;;;8295464;28;20037;-49
2021/05/23 18:03:44;;;;;;;2.50;1.50;;;21.00;36.70;;;;;;8276821;28;20066;-51
2021/05/23 18:07:45;;;;;;;2.40;1.40;;;21.00;36.80;;;;;;8336015;28;20045;-49
2021/05/23 18:11:46;;;;;;;1.88;1.20;;;21.00;36.80;;;;;;8297662;28;20042;-49
2021/05/23 18:15:47;;;;;;;1.40;0.95;;;21.00;36.80;;;;;;8294820;28;20402;-50
2021/05/23 18:19:48;;;;;;;2.33;1.50;;;21.00;36.80;;;;;;8266289;28;20053;-50
2021/05/23 18:23:48;;;;;;;1.90;1.47;;;20.90;36.80;;;;;;8262029;28;20543;-49
2021/05/23 18:27:49;;;;;;;2.50;1.50;;;20.90;36.80;;;;;;8266304;28;20031;-51
2021/05/23 18:31:50;;;;;;;2.47;1.63;;;20.90;36.80;;;;;;8260217;28;20034;-51
2021/05/23 18:35:50;;;;;;;3.03;1.55;;;20.90;36.90;;;;;;8272032;28;20038;-50
2021/05/23 18:39:52;;;;;;;2.17;1.60;;;21.00;36.90;;;;;;8293942;28;20037;-50
2021/05/23 18:43:53;;;;;;;;;;;20.90;36.90;;;;;;8295806;28;20172;-48
2021/05/23 18:47:54;;;;;;;2.00;1.60;;;20.90;37.00;;;;;;8293740;28;19917;-52
2021/05/23 18:51:54;;;;;;;1.90;1.52;;;20.90;37.00;;;;;;8293459;28;20125;-48
2021/05/23 18:55:55;;;;;;;2.83;1.63;;;20.90;37.00;;;;;;8292017;28;20069;-49
2021/05/23 18:59:56;;;;;;;2.27;1.80;;;20.90;37.00;;;;;;8293093;28;20045;-49
2021/05/23 19:03:56;;;;;;;2.13;1.53;;;20.90;37.10;;;;;;8297720;28;20030;-50
2021/05/23 19:07:57;;;;;;;2.67;1.60;;;20.90;37.10;;;;;;8291344;28;20034;-48
2021/05/23 19:11:57;;;;;;;2.90;2.00;;;20.90;37.10;;;;;;8281384;28;20038;-50
2021/05/23 19:15:58;;;;;;;2.90;1.60;;;20.80;37.10;;;;;;8280040;28;20522;-51
2021/05/23 19:19:58;;;;;;;3.07;1.60;;;20.80;37.10;;;;;;8271179;28;20030;-47
2021/05/23 19:23:59;;;;;;;1.63;1.33;;;20.80;37.10;;;;;;8292616;28;20034;-48
2021/05/23 19:28:00;;;;;;;2.15;1.95;;;20.80;37.20;;;;;;8292587;28;20041;-50
2021/05/23 19:32:00;;;;;;;2.40;1.53;;;20.90;37.30;;;;;;8290841;28;20149;-47
2021/05/23 19:36:03;;;;;;;4.13;2.00;;;20.80;37.20;;;;;;8294607;28;20072;-47
2021/05/23 19:40:05;;;;;;;2.88;1.70;;;20.90;37.20;;;;;;8292650;28;20394;-47
2021/05/23 19:44:07;;;;;;;3.17;2.08;;;20.80;37.30;;;;;;8286113;28;20030;-48
2021/05/23 19:48:08;;;;;;;2.55;1.70;;;20.80;37.20;;;;;;8272842;28;20026;-47
2021/05/23 19:52:08;;;;;;;2.65;2.05;;;20.80;37.30;;;;;;8270916;28;20023;-47
2021/05/23 19:56:09;;;;;;;2.07;1.60;;;20.80;37.30;;;;;;8273885;28;20390;-48
2021/05/23 20:00:11;;;;;;;2.10;1.40;;;20.80;37.30;;;;;;8298602;28;20061;-48
2021/05/23 20:04:11;;;;;;;;;;;20.80;37.30;;;;;;8298994;28;20038;-48
2021/05/23 20:08:11;;;;;;;6.47;1.60;;;20.80;37.30;;;;;;8291903;28;19920;-50
2021/05/23 20:12:13;;;;;;;3.43;2.03;;;20.80;37.30;;;;;;8270542;28;20066;-51
2021/05/23 20:16:14;;;;;;;2.28;1.50;;;20.80;37.90;;;;;;8265903;28;20041;-52
2021/05/23 20:20:16;;;;;;;2.10;1.35;;;20.80;37.30;;;;;;8264037;28;20034;-51
2021/05/23 20:24:16;;;;;;;3.30;1.60;;;20.80;37.30;;;;;;8265540;28;20046;-52
2021/05/23 20:28:17;;;;;;;1.77;1.33;;;20.80;37.30;;;;;;8265180;28;20456;-50
2021/05/23 20:32:19;;;;;;;1.93;1.60;;;20.70;37.30;;;;;;8298550;28;20160;-48
2021/05/23 20:36:20;;;;;;;3.00;1.67;;;20.80;37.30;;;;;;8297660;28;20045;-51
2021/05/23 20:40:23;;;;;;;2.53;1.90;;;20.80;37.30;;;;;;8297525;28;20490;-51
2021/05/23 20:44:23;;;;;;;2.63;1.70;;;20.70;37.30;;;;;;8288393;28;20308;-49
2021/05/23 20:48:24;;;;;;;1.87;1.50;;;20.80;37.30;;;;;;8284336;28;20034;-48
2021/05/23 20:52:24;;;;;;;2.77;1.57;;;20.70;37.20;;;;;;8273630;28;20046;-51
2021/05/23 20:56:25;;;;;;;2.53;1.70;;;20.70;37.30;;;;;;8294476;28;20026;-51
2021/05/23 21:00:25;;;;;;;2.37;1.40;;;20.70;37.30;;;;;;8282002;28;20073;-48
2021/05/23 21:04:26;;;;;;;1.60;1.40;;;20.70;37.20;;;;;;8290951;28;20049;-50
2021/05/23 21:08:32;;;;;;;1.90;1.50;;;20.70;37.20;;;;;;8294955;28;20204;-51